createdAt,value
2018-07-20T00:00:05.213Z,18.00
2018-07-20T00:02:39.242Z,18.00
2018-07-20T00:05:13.587Z,18.00
2018-07-20T00:07:47.708Z,18.00
2018-07-20T00:10:22.987Z,18.00
2018-07-20T00:12:56.902Z,17.90
2018-07-20T00:15:32.033Z,17.90
2018-07-20T00:18:07.074Z,17.90
2018-07-20T00:20:41.308Z,17.80
2018-07-20T00:23:15.449Z,17.70
2018-07-20T00:25:49.355Z,17.60
2018-07-20T00:28:23.632Z,17.60
2018-07-20T00:30:58.118Z,17.50
2018-07-20T00:33:32.050Z,17.40
2018-07-20T00:36:06.854Z,17.20
2018-07-20T00:38:41.542Z,17.10
2018-07-20T00:41:15.505Z,17.00
2018-07-20T00:43:49.298Z,17.00
2018-07-20T00:46:23.728Z,16.90
2018-07-20T00:48:58.257Z,16.90
2018-07-20T00:51:32.418Z,16.80
2018-07-20T00:54:06.403Z,16.80
2018-07-20T00:56:40.363Z,16.70
2018-07-20T00:59:14.619Z,16.70
2018-07-20T01:01:49.283Z,16.70
2018-07-20T01:06:56.899Z,16.80
2018-07-20T01:09:31.438Z,16.80
2018-07-20T01:14:40.164Z,16.80
2018-07-20T01:17:13.955Z,16.80
2018-07-20T01:19:48.524Z,16.80
2018-07-20T01:22:22.660Z,16.80
2018-07-20T01:24:56.571Z,16.80
2018-07-20T01:27:30.913Z,16.80
2018-07-20T01:30:05.484Z,16.80
2018-07-20T01:32:39.673Z,16.80
2018-07-20T01:35:13.967Z,16.90
2018-07-20T01:37:48.084Z,16.80
2018-07-20T01:40:22.248Z,16.80
2018-07-20T01:42:56.284Z,16.80
2018-07-20T01:45:30.341Z,16.80
2018-07-20T01:48:04.495Z,16.80
2018-07-20T01:50:38.425Z,16.80
2018-07-20T01:53:12.638Z,16.80
2018-07-20T01:55:46.807Z,16.80
2018-07-20T01:58:20.858Z,16.80
2018-07-20T02:00:55.103Z,16.80
2018-07-20T02:03:29.321Z,16.80
2018-07-20T02:06:04.112Z,16.80
2018-07-20T02:08:38.412Z,16.90
2018-07-20T02:11:13.246Z,16.90
2018-07-20T02:13:47.580Z,16.80
2018-07-20T02:16:21.487Z,16.90
2018-07-20T02:18:56.042Z,16.90
2018-07-20T02:21:30.258Z,16.80
2018-07-20T02:24:04.322Z,16.70
2018-07-20T02:26:39.517Z,16.70
2018-07-20T02:29:13.582Z,16.60
2018-07-20T02:31:47.469Z,16.60
2018-07-20T02:34:21.379Z,16.50
2018-07-20T02:36:55.618Z,16.40
2018-07-20T02:39:29.747Z,16.30
2018-07-20T02:42:04.397Z,16.30
2018-07-20T02:44:38.627Z,16.30
2018-07-20T02:47:12.747Z,16.20
2018-07-20T02:49:46.861Z,16.10
2018-07-20T02:52:20.787Z,16.10
2018-07-20T02:54:55.128Z,16.00
2018-07-20T02:57:29.123Z,16.00
2018-07-20T03:00:03.059Z,16.00
2018-07-20T03:02:36.965Z,16.00
2018-07-20T03:05:11.663Z,16.10
2018-07-20T03:07:45.689Z,16.10
2018-07-20T03:10:19.892Z,16.30
2018-07-20T03:12:54.418Z,16.30
2018-07-20T03:15:28.693Z,16.50
2018-07-20T03:18:02.893Z,16.60
2018-07-20T03:20:36.833Z,16.60
2018-07-20T03:23:11.941Z,16.70
2018-07-20T03:25:45.978Z,16.80
2018-07-20T03:28:20.143Z,16.80
2018-07-20T03:30:54.162Z,16.80
2018-07-20T03:33:28.069Z,16.80
2018-07-20T03:36:03.233Z,16.80
2018-07-20T03:38:37.127Z,16.80
2018-07-20T03:41:11.164Z,16.80
2018-07-20T03:43:44.992Z,16.80
2018-07-20T03:46:19.452Z,16.80
2018-07-20T03:48:53.933Z,16.80
2018-07-20T03:51:28.057Z,16.80
2018-07-20T03:54:03.063Z,16.80
2018-07-20T03:56:37.154Z,16.80
2018-07-20T03:59:11.048Z,16.80
2018-07-20T04:01:45.070Z,16.90
2018-07-20T04:04:19.077Z,16.90
2018-07-20T04:06:53.363Z,16.90
2018-07-20T04:09:27.464Z,17.00
2018-07-20T04:12:02.405Z,17.00
2018-07-20T04:14:36.509Z,17.10
2018-07-20T04:17:10.267Z,17.10
2018-07-20T04:19:44.706Z,17.10
2018-07-20T04:24:52.604Z,17.20
2018-07-20T04:27:27.008Z,17.30
2018-07-20T04:30:02.105Z,17.30
2018-07-20T04:32:36.283Z,17.30
2018-07-20T04:35:11.107Z,17.30
2018-07-20T04:37:45.759Z,17.30
2018-07-20T04:40:19.764Z,17.30
2018-07-20T04:42:53.717Z,17.30
2018-07-20T04:45:28.220Z,17.30
2018-07-20T04:48:02.992Z,17.30
2018-07-20T04:50:37.206Z,17.40
2018-07-20T04:53:10.942Z,17.30
2018-07-20T04:55:45.048Z,17.40
2018-07-20T05:00:54.204Z,17.50
2018-07-20T05:06:02.524Z,17.60
2018-07-20T05:08:36.778Z,17.60
2018-07-20T05:11:11.244Z,17.70
2018-07-20T05:13:45.428Z,17.80
2018-07-20T05:16:19.999Z,17.80
2018-07-20T05:18:54.226Z,17.90
2018-07-20T05:21:28.448Z,18.00
2018-07-20T05:24:02.535Z,18.10
2018-07-20T05:26:36.603Z,18.20
2018-07-20T05:31:44.631Z,18.40
2018-07-20T05:34:18.800Z,18.40
2018-07-20T05:36:53.399Z,18.50
2018-07-20T05:39:31.900Z,18.60
2018-07-20T05:42:06.113Z,18.60
2018-07-20T05:44:40.159Z,18.70
2018-07-20T05:47:14.296Z,18.70
2018-07-20T05:49:48.377Z,18.90
2018-07-20T05:52:23.002Z,19.00
2018-07-20T05:54:57.543Z,19.00
2018-07-20T05:57:31.477Z,19.20
2018-07-20T06:00:06.934Z,19.30
2018-07-20T06:02:40.760Z,19.40
2018-07-20T06:05:14.921Z,19.50
2018-07-20T06:07:49.288Z,19.70
2018-07-20T06:10:24.535Z,19.90
2018-07-20T06:12:58.303Z,20.00
2018-07-20T06:15:32.314Z,20.20
2018-07-20T06:18:06.998Z,20.30
2018-07-20T06:20:41.072Z,20.40
2018-07-20T06:23:15.623Z,20.60
2018-07-20T06:25:50.182Z,20.70
2018-07-20T06:28:24.395Z,20.80
2018-07-20T06:30:58.412Z,20.90
2018-07-20T06:33:32.230Z,21.00
2018-07-20T06:36:05.973Z,21.20
2018-07-20T06:38:39.864Z,21.40
2018-07-20T06:41:15.119Z,21.50
2018-07-20T06:43:49.203Z,21.50
2018-07-20T06:46:23.169Z,21.60
2018-07-20T06:48:57.007Z,21.70
2018-07-20T06:51:32.218Z,21.90
2018-07-20T06:54:06.099Z,21.90
2018-07-20T06:56:40.964Z,22.00
2018-07-20T06:59:15.059Z,22.10
2018-07-20T07:01:48.898Z,22.10
2018-07-20T07:04:22.991Z,22.10
2018-07-20T07:06:57.188Z,22.10
2018-07-20T07:12:05.483Z,22.30
2018-07-20T07:14:39.344Z,22.40
2018-07-20T07:17:13.439Z,22.50
2018-07-20T07:19:47.541Z,22.60
2018-07-20T07:22:21.628Z,22.70
2018-07-20T07:24:55.754Z,22.90
2018-07-20T07:27:30.004Z,23.10
2018-07-20T07:30:04.208Z,23.20
2018-07-20T07:32:38.412Z,23.20
2018-07-20T07:35:13.152Z,23.30
2018-07-20T07:37:47.297Z,23.30
2018-07-20T07:40:21.448Z,23.40
2018-07-20T07:42:55.408Z,23.50
2018-07-20T07:45:30.003Z,23.60
2018-07-20T07:48:03.950Z,23.60
2018-07-20T07:50:37.927Z,23.70
2018-07-20T07:53:12.562Z,23.70
2018-07-20T07:55:47.858Z,23.80
2018-07-20T07:58:21.969Z,23.80
2018-07-20T08:00:55.779Z,23.80
2018-07-20T08:03:30.092Z,23.90
2018-07-20T08:06:04.242Z,24.00
2018-07-20T08:08:38.143Z,24.10
2018-07-20T08:11:12.123Z,24.20
2018-07-20T08:13:47.184Z,24.40
2018-07-20T08:16:21.002Z,24.50
2018-07-20T08:18:54.943Z,24.50
2018-07-20T08:21:29.227Z,24.60
2018-07-20T08:24:03.230Z,24.60
2018-07-20T08:26:37.505Z,24.60
2018-07-20T08:29:12.374Z,24.60
2018-07-20T08:31:46.244Z,24.70
2018-07-20T08:34:20.378Z,24.70
2018-07-20T08:36:54.143Z,24.80
2018-07-20T08:39:28.938Z,24.90
2018-07-20T08:42:02.810Z,25.00
2018-07-20T08:44:36.794Z,25.10
2018-07-20T08:47:10.835Z,25.20
2018-07-20T08:49:44.726Z,25.20
2018-07-20T08:52:19.734Z,25.20
2018-07-20T08:54:53.864Z,25.30
2018-07-20T08:57:28.163Z,25.30
2018-07-20T09:02:41.169Z,25.50
2018-07-20T09:05:15.206Z,25.70
2018-07-20T09:07:49.505Z,25.80
2018-07-20T09:10:23.585Z,25.90
2018-07-20T09:12:57.456Z,26.00
2018-07-20T09:15:31.419Z,26.10
2018-07-20T09:18:06.172Z,26.20
2018-07-20T09:20:40.197Z,26.30
2018-07-20T09:23:14.409Z,26.30
2018-07-20T09:25:48.324Z,26.30
2018-07-20T09:28:23.049Z,26.30
2018-07-20T09:30:57.159Z,26.40
2018-07-20T09:33:31.683Z,26.50
2018-07-20T09:36:05.970Z,26.60
2018-07-20T09:38:40.334Z,26.70
2018-07-20T09:41:14.396Z,26.80
2018-07-20T09:43:48.441Z,26.90
2018-07-20T09:46:22.304Z,27.00
2018-07-20T09:48:56.363Z,27.00
2018-07-20T09:51:30.334Z,27.10
2018-07-20T09:54:05.191Z,27.20
2018-07-20T09:56:39.313Z,27.30
2018-07-20T09:59:13.489Z,27.30
2018-07-20T10:01:48.000Z,27.10
2018-07-20T10:04:21.994Z,27.00
2018-07-20T10:06:55.968Z,26.90
2018-07-20T10:09:30.841Z,27.00
2018-07-20T10:12:06.125Z,27.10
2018-07-20T10:14:39.989Z,27.20
2018-07-20T10:17:14.042Z,27.40
2018-07-20T10:19:48.310Z,27.40
2018-07-20T10:22:22.598Z,27.40
2018-07-20T10:24:56.743Z,27.50
2018-07-20T10:27:31.112Z,27.60
2018-07-20T10:30:05.569Z,27.70
2018-07-20T10:32:39.747Z,27.90
2018-07-20T10:35:14.391Z,28.00
2018-07-20T10:37:48.275Z,27.90
2018-07-20T10:40:25.521Z,27.90
2018-07-20T10:42:59.588Z,27.70
2018-07-20T10:45:33.522Z,27.60
2018-07-20T10:48:07.538Z,27.60
2018-07-20T10:50:42.253Z,27.60
2018-07-20T10:53:16.303Z,27.60
2018-07-20T10:55:50.582Z,27.50
2018-07-20T10:58:24.824Z,27.40
2018-07-20T11:00:59.323Z,27.40
2018-07-20T11:03:33.588Z,27.40
2018-07-20T11:06:09.734Z,27.50
2018-07-20T11:08:43.810Z,27.60
2018-07-20T11:11:17.834Z,27.70
2018-07-20T11:13:51.827Z,27.80
2018-07-20T11:16:26.793Z,28.10
2018-07-20T11:19:04.953Z,28.20
2018-07-20T11:21:42.802Z,28.30
2018-07-20T11:24:16.874Z,28.10
2018-07-20T11:26:50.907Z,28.00
2018-07-20T11:29:25.086Z,27.90
2018-07-20T11:31:59.294Z,27.90
2018-07-20T11:34:32.996Z,28.00
2018-07-20T11:37:07.217Z,28.20
2018-07-20T11:39:41.382Z,28.30
2018-07-20T11:42:15.310Z,28.50
2018-07-20T11:44:49.522Z,28.60
2018-07-20T11:49:57.349Z,28.80
2018-07-20T11:52:31.261Z,28.90
2018-07-20T11:55:05.729Z,28.90
2018-07-20T11:57:39.786Z,28.90
2018-07-20T12:00:13.803Z,28.70
2018-07-20T12:02:48.028Z,28.60
2018-07-20T12:07:55.854Z,28.40
2018-07-20T12:10:30.064Z,28.50
2018-07-20T12:13:04.551Z,28.60
2018-07-20T12:15:38.464Z,28.70
2018-07-20T12:18:12.914Z,28.90
2018-07-20T12:23:21.408Z,29.10
2018-07-20T12:25:55.580Z,29.20
2018-07-20T12:28:29.519Z,29.20
2018-07-20T12:31:03.894Z,29.10
2018-07-20T12:33:37.794Z,29.20
2018-07-20T12:36:12.079Z,29.30
2018-07-20T12:38:46.354Z,29.30
2018-07-20T12:41:20.304Z,29.50
2018-07-20T12:43:54.604Z,29.60
2018-07-20T12:46:28.702Z,29.70
2018-07-20T12:51:36.814Z,29.40
2018-07-20T12:54:10.966Z,29.20
2018-07-20T12:56:44.717Z,29.20
2018-07-20T12:59:18.884Z,29.40
2018-07-20T13:01:52.680Z,29.60
2018-07-20T13:04:26.646Z,29.90
2018-07-20T13:07:00.619Z,30.20
2018-07-20T13:09:34.647Z,30.60
2018-07-20T13:12:08.954Z,30.80
2018-07-20T13:14:43.395Z,30.80
2018-07-20T13:17:17.492Z,31.00
2018-07-20T13:19:52.299Z,31.10
2018-07-20T13:22:26.644Z,31.30
2018-07-20T13:25:00.734Z,31.40
2018-07-20T13:27:34.579Z,31.50
2018-07-20T13:30:08.924Z,31.50
2018-07-20T13:32:43.290Z,31.40
2018-07-20T13:35:17.201Z,31.40
2018-07-20T13:37:51.679Z,31.20
2018-07-20T13:40:25.681Z,31.10
2018-07-20T13:42:59.586Z,31.30
2018-07-20T13:45:34.338Z,31.30
2018-07-20T13:48:08.330Z,31.50
2018-07-20T13:50:42.434Z,31.50
2018-07-20T13:53:16.340Z,31.40
2018-07-20T13:55:50.566Z,31.20
2018-07-20T13:58:25.084Z,31.10
2018-07-20T14:00:58.938Z,30.90
2018-07-20T14:03:32.813Z,30.70
2018-07-20T14:06:07.870Z,30.50
2018-07-20T14:08:41.815Z,30.50
2018-07-20T14:11:15.806Z,30.30
2018-07-20T14:13:50.128Z,30.20
2018-07-20T14:16:24.849Z,30.00
2018-07-20T14:18:59.305Z,29.90
2018-07-20T14:21:33.259Z,29.90
2018-07-20T14:24:07.348Z,29.80
2018-07-20T14:26:41.283Z,29.80
2018-07-20T14:29:15.215Z,29.80
2018-07-20T14:31:49.515Z,29.90
2018-07-20T14:34:23.449Z,30.00
2018-07-20T14:36:57.496Z,30.30
2018-07-20T14:39:31.618Z,30.50
2018-07-20T14:42:05.604Z,30.40
2018-07-20T14:44:39.428Z,30.30
2018-07-20T14:47:13.471Z,30.30
2018-07-20T14:49:47.559Z,30.40
2018-07-20T14:52:21.776Z,30.60
2018-07-20T14:54:58.062Z,30.80
2018-07-20T14:57:31.986Z,31.00
2018-07-20T15:00:06.232Z,31.10
2018-07-20T15:02:40.110Z,31.20
2018-07-20T15:05:14.059Z,31.10
2018-07-20T15:07:48.335Z,31.20
2018-07-20T15:10:22.610Z,31.10
2018-07-20T15:12:57.104Z,31.10
2018-07-20T15:15:31.254Z,31.00
2018-07-20T15:18:05.344Z,31.10
2018-07-20T15:20:39.058Z,31.00
2018-07-20T15:23:13.102Z,31.00
2018-07-20T15:25:47.340Z,30.90
2018-07-20T15:28:22.035Z,30.90
2018-07-20T15:30:56.279Z,30.90
2018-07-20T15:33:30.377Z,30.90
2018-07-20T15:36:04.509Z,31.20
2018-07-20T15:38:38.892Z,31.40
2018-07-20T15:41:12.904Z,31.60
2018-07-20T15:43:47.273Z,31.50
2018-07-20T15:46:21.512Z,31.50
2018-07-20T15:48:55.635Z,31.70
2018-07-20T15:51:55.489Z,31.60
2018-07-20T15:54:03.476Z,31.30
2018-07-20T15:56:37.464Z,31.00
2018-07-20T15:59:11.408Z,30.60
2018-07-20T16:01:45.579Z,30.30
2018-07-20T16:04:19.503Z,30.40
2018-07-20T16:06:53.609Z,30.60
2018-07-20T16:09:27.718Z,30.70
2018-07-20T16:12:01.937Z,30.60
2018-07-20T16:14:35.779Z,30.50
2018-07-20T16:17:09.800Z,30.70
2018-07-20T16:19:43.775Z,31.20
2018-07-20T16:22:17.738Z,31.60
2018-07-20T16:24:52.069Z,31.80
2018-07-20T16:27:26.283Z,31.90
2018-07-20T16:30:00.585Z,31.70
2018-07-20T16:32:34.880Z,31.30
2018-07-20T16:35:09.072Z,30.90
2018-07-20T16:37:42.848Z,30.50
2018-07-20T16:40:16.880Z,30.10
2018-07-20T16:42:51.864Z,30.00
2018-07-20T16:45:26.024Z,30.40
2018-07-20T16:48:00.009Z,31.20
2018-07-20T16:50:34.643Z,32.20
2018-07-20T16:53:08.689Z,32.80
2018-07-20T16:55:42.780Z,32.80
2018-07-20T16:58:17.013Z,32.90
2018-07-20T17:00:50.924Z,33.00
2018-07-20T17:03:25.250Z,33.20
2018-07-20T17:05:58.980Z,33.30
2018-07-20T17:08:33.067Z,33.40
2018-07-20T17:11:07.863Z,33.20
2018-07-20T17:13:41.950Z,32.80
2018-07-20T17:16:16.093Z,32.40
2018-07-20T17:18:50.050Z,32.00
2018-07-20T17:21:24.219Z,31.60
2018-07-20T17:23:58.475Z,31.30
2018-07-20T17:31:40.615Z,30.60
2018-07-20T17:34:14.741Z,30.50
2018-07-20T17:36:48.650Z,30.30
2018-07-20T17:39:22.795Z,30.20
2018-07-20T17:41:56.814Z,30.00
2018-07-20T17:44:31.077Z,29.90
2018-07-20T17:47:05.677Z,29.70
2018-07-20T17:49:41.085Z,29.50
2018-07-20T17:52:15.310Z,29.40
2018-07-20T17:54:49.209Z,29.30
2018-07-20T17:57:23.236Z,29.20
2018-07-20T17:59:57.440Z,29.00
2018-07-20T18:02:31.375Z,28.90
2018-07-20T18:05:06.348Z,28.80
2018-07-20T18:10:14.606Z,28.70
2018-07-20T18:12:48.574Z,28.70
2018-07-20T18:17:56.953Z,28.60
2018-07-20T18:20:34.999Z,28.60
2018-07-20T18:23:09.270Z,28.50
2018-07-20T18:25:43.057Z,28.40
2018-07-20T18:28:17.323Z,28.30
2018-07-20T18:30:52.270Z,28.20
2018-07-20T18:33:26.268Z,28.20
2018-07-20T18:36:00.521Z,28.10
2018-07-20T18:38:34.584Z,28.10
2018-07-20T18:41:09.200Z,28.00
2018-07-20T18:43:43.149Z,28.00
2018-07-20T18:46:17.752Z,27.90
2018-07-20T18:48:51.780Z,27.80
2018-07-20T18:51:25.668Z,27.70
2018-07-20T18:54:00.063Z,27.60
2018-07-20T18:56:34.114Z,27.50
2018-07-20T18:59:08.306Z,27.40
2018-07-20T19:01:42.131Z,27.40
2018-07-20T19:04:16.016Z,27.20
2018-07-20T19:06:50.248Z,27.10
2018-07-20T19:09:24.702Z,26.90
2018-07-20T19:11:58.499Z,26.80
2018-07-20T19:14:32.564Z,26.60
2018-07-20T19:17:06.861Z,26.50
2018-07-20T19:19:41.299Z,26.30
2018-07-20T19:24:49.124Z,25.90
2018-07-20T19:27:23.089Z,25.70
2018-07-20T19:29:56.984Z,25.50
2018-07-20T19:32:30.957Z,25.40
2018-07-20T19:35:04.963Z,25.30
2018-07-20T19:37:38.779Z,25.30
2018-07-20T19:40:13.560Z,25.20
2018-07-20T19:42:47.645Z,25.00
2018-07-20T19:45:21.388Z,24.90
2018-07-20T19:47:55.300Z,24.80
2018-07-20T19:50:29.114Z,24.70
2018-07-20T19:53:03.163Z,24.60
2018-07-20T19:55:37.259Z,24.50
2018-07-20T19:58:11.269Z,24.40
2018-07-20T20:00:45.491Z,24.40
2018-07-20T20:03:19.555Z,24.20
2018-07-20T20:05:53.517Z,24.20
2018-07-20T20:08:27.545Z,24.10
2018-07-20T20:11:01.499Z,24.00
2018-07-20T20:13:35.585Z,23.90
2018-07-20T20:16:09.511Z,23.80
2018-07-20T20:18:43.554Z,23.80
2018-07-20T20:21:17.856Z,23.70
2018-07-20T20:23:51.910Z,23.60
2018-07-20T20:26:26.031Z,23.50
2018-07-20T20:29:00.024Z,23.40
2018-07-20T20:31:34.105Z,23.30
2018-07-20T20:34:08.051Z,23.20
2018-07-20T20:36:42.064Z,23.10
2018-07-20T20:39:16.303Z,23.00
2018-07-20T20:41:50.354Z,22.90
2018-07-20T20:44:24.546Z,22.80
2018-07-20T20:46:58.590Z,22.60
2018-07-20T20:49:32.663Z,22.60
2018-07-20T20:52:07.689Z,22.50
2018-07-20T20:54:41.894Z,22.40
2018-07-20T20:57:16.430Z,22.20
2018-07-20T20:59:50.664Z,22.20
2018-07-20T21:02:24.784Z,22.00
2018-07-20T21:04:58.730Z,21.90
2018-07-20T21:07:33.129Z,21.80
2018-07-20T21:10:07.151Z,21.70
2018-07-20T21:12:41.367Z,21.70
2018-07-20T21:15:15.278Z,21.70
2018-07-20T21:17:49.559Z,21.80
2018-07-20T21:20:23.560Z,21.80
2018-07-20T21:22:57.365Z,21.80
2018-07-20T21:25:31.811Z,21.70
2018-07-20T21:28:06.169Z,21.60
2018-07-20T21:30:40.216Z,21.60
2018-07-20T21:33:14.476Z,21.60
2018-07-20T21:35:48.434Z,21.60
2018-07-20T21:38:22.304Z,21.50
2018-07-20T21:40:56.096Z,21.40
2018-07-20T21:43:30.363Z,21.40
2018-07-20T21:46:04.413Z,21.30
2018-07-20T21:48:38.291Z,21.30
2018-07-20T21:51:12.628Z,21.20
2018-07-20T21:53:46.870Z,21.20
2018-07-20T21:56:20.923Z,21.10
2018-07-20T21:58:55.197Z,21.00
2018-07-20T22:01:29.404Z,21.00
2018-07-20T22:04:03.376Z,20.90
2018-07-20T22:06:37.578Z,20.80
2018-07-20T22:09:11.949Z,20.80
2018-07-20T22:11:45.989Z,20.80
2018-07-20T22:14:20.175Z,20.90
2018-07-20T22:16:54.024Z,20.80
2018-07-20T22:19:27.881Z,20.80
2018-07-20T22:24:36.083Z,20.80
2018-07-20T22:27:09.944Z,20.80
2018-07-20T22:29:43.875Z,20.70
2018-07-20T22:34:52.029Z,20.80
2018-07-20T22:37:25.930Z,20.80
2018-07-20T22:39:59.940Z,20.80
2018-07-20T22:42:34.185Z,20.80
2018-07-20T22:45:08.139Z,20.90
2018-07-20T22:47:42.195Z,20.90
2018-07-20T22:50:16.213Z,20.90
2018-07-20T22:52:50.170Z,20.90
2018-07-20T22:55:24.990Z,20.90
2018-07-20T22:57:59.006Z,20.90
2018-07-20T23:00:33.215Z,21.00
2018-07-20T23:03:07.348Z,21.00
2018-07-20T23:05:41.230Z,21.10
2018-07-20T23:08:15.339Z,21.10
2018-07-20T23:10:49.308Z,21.20
2018-07-20T23:13:23.358Z,21.30
2018-07-20T23:15:57.695Z,21.30
2018-07-20T23:18:31.714Z,21.40
2018-07-20T23:21:05.740Z,21.50
2018-07-20T23:23:39.576Z,21.50
2018-07-20T23:26:13.303Z,21.60
2018-07-20T23:28:47.314Z,21.60
2018-07-20T23:31:21.238Z,21.70
2018-07-20T23:33:55.195Z,21.80
2018-07-20T23:36:29.244Z,22.00
2018-07-20T23:39:04.393Z,22.10
2018-07-20T23:41:38.293Z,22.10
2018-07-20T23:44:12.142Z,22.10
2018-07-20T23:46:46.056Z,22.10
2018-07-20T23:49:20.228Z,22.00
2018-07-20T23:51:54.178Z,22.00
2018-07-20T23:54:28.776Z,22.00
2018-07-20T23:57:02.643Z,21.90
2018-07-20T23:59:36.878Z,21.90
